Time,TemperatureF,DewpointF,PressureIn,WindDirection,WindDirectionDegrees,WindSpeedMPH,WindSpeedGustMPH,Humidity,HourlyPrecipIn,Conditions,Clouds,dailyrainin,SoftwareType,DateUTC
2013-09-22 00:10:00,44.4,42.0,29.65,ENE,78,0.0,0.0,91,0.00,,,0.00,weatherlink.com 1.10,2013-09-22 07:10:00,
2013-09-22 00:25:00,44.2,42.0,29.64,ENE,78,0.0,0.0,91,0.00,,,0.00,weatherlink.com 1.10,2013-09-22 07:25:00,
2013-09-22 00:40:00,44.1,42.0,29.64,ENE,78,0.0,0.0,91,0.00,,,0.00,weatherlink.com 1.10,2013-09-22 07:40:00,
2013-09-22 00:55:00,44.0,42.0,29.64,ENE,78,0.0,0.0,92,0.00,,,0.00,weatherlink.com 1.10,2013-09-22 07:55:00,
2013-09-22 01:25:00,44.5,42.0,29.64,ENE,78,0.0,0.0,91,0.00,,,0.00,weatherlink.com 1.10,2013-09-22 08:25:00,
2013-09-22 01:40:00,44.9,42.0,29.64,ENE,78,0.0,0.0,90,0.00,,,0.00,weatherlink.com 1.10,2013-09-22 08:40:00,
2013-09-22 01:55:00,45.2,42.0,29.65,NE,47,0.0,0.0,89,0.00,,,0.00,weatherlink.com 1.10,2013-09-22 08:55:00,
2013-09-22 02:10:00,45.2,42.0,29.64,NE,47,0.0,0.0,89,0.00,,,0.00,weatherlink.com 1.10,2013-09-22 09:10:00,
2013-09-22 02:25:00,44.9,42.0,29.64,NE,47,0.0,0.0,89,0.00,,,0.00,weatherlink.com 1.10,2013-09-22 09:25:00,
2013-09-22 02:40:00,44.4,42.0,29.64,NE,47,0.0,0.0,90,0.00,,,0.00,weatherlink.com 1.10,2013-09-22 09:40:00,
2013-09-22 02:55:00,44.0,41.0,29.64,NE,47,0.0,0.0,90,0.00,,,0.00,weatherlink.com 1.10,2013-09-22 09:55:00,
2013-09-22 03:10:00,43.7,41.0,29.64,NE,47,0.0,0.0,91,0.00,,,0.00,weatherlink.com 1.10,2013-09-22 10:10:00,
2013-09-22 03:25:00,43.3,41.0,29.63,NE,47,0.0,0.0,92,0.00,,,0.00,weatherlink.com 1.10,2013-09-22 10:25:00,
2013-09-22 03:40:00,43.0,41.0,29.63,NE,47,0.0,0.0,92,0.00,,,0.00,weatherlink.com 1.10,2013-09-22 10:40:00,
2013-09-22 04:10:00,42.4,40.0,29.63,NE,47,0.0,0.0,92,0.00,,,0.00,weatherlink.com 1.10,2013-09-22 11:10:00,
2013-09-22 04:25:00,42.1,40.0,29.63,NE,47,0.0,0.0,93,0.00,,,0.00,weatherlink.com 1.10,2013-09-22 11:25:00,
2013-09-22 04:40:00,42.2,41.0,29.63,NE,47,0.0,0.0,95,0.00,,,0.00,weatherlink.com 1.10,2013-09-22 11:40:00,
2013-09-22 04:55:00,42.7,41.0,29.63,NE,47,0.0,0.0,95,0.00,,,0.00,weatherlink.com 1.10,2013-09-22 11:55:00,
2013-09-22 05:10:00,42.9,41.0,29.63,NE,47,0.0,0.0,94,0.00,,,0.00,weatherlink.com 1.10,2013-09-22 12:10:00,
2013-09-22 05:25:00,42.9,41.0,29.63,NE,47,0.0,0.0,94,0.00,,,0.00,weatherlink.com 1.10,2013-09-22 12:25:00,
2013-09-22 05:40:00,42.8,41.0,29.63,NE,47,0.0,0.0,94,0.00,,,0.00,weatherlink.com 1.10,2013-09-22 12:40:00,
2013-09-22 05:55:00,42.6,41.0,29.63,NE,47,0.0,0.0,94,0.00,,,0.00,weatherlink.com 1.10,2013-09-22 12:55:00,
2013-09-22 06:10:00,42.7,41.0,29.63,NE,47,0.0,0.0,95,0.00,,,0.00,weatherlink.com 1.10,2013-09-22 13:10:00,
2013-09-22 06:25:00,42.9,41.0,29.63,NE,47,0.0,0.0,94,0.00,,,0.00,weatherlink.com 1.10,2013-09-22 13:25:00,
2013-09-22 06:40:00,43.0,41.0,29.63,NE,47,0.0,0.0,94,0.00,,,0.00,weatherlink.com 1.10,2013-09-22 13:40:00,
2013-09-22 06:55:00,43.1,42.0,29.62,NE,47,0.0,0.0,94,0.00,,,0.00,weatherlink.com 1.10,2013-09-22 13:55:00,
2013-09-22 07:10:00,43.1,42.0,29.62,NE,47,0.0,0.0,95,0.00,,,0.00,weatherlink.com 1.10,2013-09-22 14:10:00,
2013-09-22 07:25:00,43.4,42.0,29.63,NE,47,0.0,0.0,94,0.00,,,0.00,weatherlink.com 1.10,2013-09-22 14:25:00,
2013-09-22 07:40:00,43.7,42.0,29.63,NE,47,0.0,0.0,95,0.00,,,0.00,weatherlink.com 1.10,2013-09-22 14:40:00,
2013-09-22 07:55:00,44.0,43.0,29.65,NE,47,0.0,0.0,95,0.00,,,0.00,weatherlink.com 1.10,2013-09-22 14:55:00,
2013-09-22 08:10:00,44.4,43.0,29.65,NE,47,0.0,0.0,95,0.01,,,0.01,weatherlink.com 1.10,2013-09-22 15:10:00,
2013-09-22 08:25:00,44.9,44.0,29.66,NE,47,0.0,0.0,96,0.01,,,0.01,weatherlink.com 1.10,2013-09-22 15:25:00,
2013-09-22 08:41:00,45.4,44.0,29.66,NE,47,0.0,0.0,96,0.01,,,0.01,weatherlink.com 1.10,2013-09-22 15:41:00,
2013-09-22 08:56:00,45.9,45.0,29.66,NE,47,0.0,0.0,97,0.01,,,0.01,weatherlink.com 1.10,2013-09-22 15:56:00,
2013-09-22 09:11:00,46.5,46.0,29.66,NE,47,0.0,0.0,97,0.00,,,0.01,weatherlink.com 1.10,2013-09-22 16:11:00,
2013-09-22 09:26:00,47.1,46.0,29.66,NE,47,0.0,0.0,97,0.00,,,0.01,weatherlink.com 1.10,2013-09-22 16:26:00,
2013-09-22 09:41:00,47.9,47.0,29.66,NE,47,0.0,0.0,97,0.00,,,0.01,weatherlink.com 1.10,2013-09-22 16:41:00,
2013-09-22 09:56:00,48.6,48.0,29.66,NE,47,0.0,0.0,97,0.00,,,0.01,weatherlink.com 1.10,2013-09-22 16:56:00,
2013-09-22 10:11:00,49.4,49.0,29.66,NE,47,0.0,0.0,98,0.00,,,0.01,weatherlink.com 1.10,2013-09-22 17:11:00,
2013-09-22 10:26:00,50.0,50.0,29.65,NE,47,0.0,0.0,98,0.00,,,0.01,weatherlink.com 1.10,2013-09-22 17:26:00,
2013-09-22 10:41:00,50.5,48.0,29.64,NE,47,0.0,0.0,92,0.00,,,0.01,weatherlink.com 1.10,2013-09-22 17:41:00,
2013-09-22 10:56:00,51.4,48.0,29.63,NE,47,0.0,0.0,88,0.00,,,0.01,weatherlink.com 1.10,2013-09-22 17:56:00,
2013-09-22 11:11:00,51.9,47.0,29.63,NE,47,0.0,0.0,82,0.00,,,0.01,weatherlink.com 1.10,2013-09-22 18:11:00,
2013-09-22 11:26:00,52.3,46.0,29.63,NE,55,0.0,0.0,80,0.00,,,0.01,weatherlink.com 1.10,2013-09-22 18:26:00,
2013-09-22 11:41:00,52.3,48.0,29.62,NE,55,0.0,0.0,84,0.00,,,0.01,weatherlink.com 1.10,2013-09-22 18:41:00,
2013-09-22 11:56:00,51.9,48.0,29.63,NE,55,0.0,0.0,86,0.00,,,0.01,weatherlink.com 1.10,2013-09-22 18:56:00,
2013-09-22 12:11:00,52.2,47.0,29.62,NE,55,0.0,0.0,81,0.00,,,0.01,weatherlink.com 1.10,2013-09-22 19:11:00,
2013-09-22 12:26:00,52.9,46.0,29.61,NE,55,0.0,0.0,78,0.00,,,0.01,weatherlink.com 1.10,2013-09-22 19:26:00,
2013-09-22 12:41:00,53.6,47.0,29.61,NE,55,0.0,0.0,77,0.00,,,0.01,weatherlink.com 1.10,2013-09-22 19:41:00,
2013-09-22 12:56:00,54.2,47.0,29.61,NE,54,0.0,0.0,76,0.00,,,0.01,weatherlink.com 1.10,2013-09-22 19:56:00,
2013-09-22 13:11:00,54.7,47.0,29.60,SW,229,0.0,0.0,76,0.00,,,0.01,weatherlink.com 1.10,2013-09-22 20:11:00,
2013-09-22 13:26:00,55.0,48.0,29.60,SW,229,0.0,0.0,77,0.00,,,0.01,weatherlink.com 1.10,2013-09-22 20:26:00,
2013-09-22 13:41:00,54.9,47.0,29.61,SW,229,0.0,0.0,75,0.00,,,0.01,weatherlink.com 1.10,2013-09-22 20:41:00,
2013-09-22 13:56:00,54.2,48.0,29.61,SW,229,0.0,0.0,79,0.00,,,0.01,weatherlink.com 1.10,2013-09-22 20:56:00,
2013-09-22 14:11:00,53.0,49.0,29.61,SW,229,0.0,0.0,85,0.02,,,0.03,weatherlink.com 1.10,2013-09-22 21:11:00,
2013-09-22 14:26:00,51.4,48.0,29.61,SW,229,0.0,0.0,89,0.03,,,0.04,weatherlink.com 1.10,2013-09-22 21:26:00,
2013-09-22 14:41:00,50.4,48.0,29.63,SW,229,0.0,0.0,91,0.04,,,0.05,weatherlink.com 1.10,2013-09-22 21:41:00,
2013-09-22 14:56:00,50.0,48.0,29.62,SW,229,0.0,0.0,93,0.05,,,0.06,weatherlink.com 1.10,2013-09-22 21:56:00,
2013-09-22 15:11:00,49.7,48.0,29.65,SW,229,0.0,0.0,94,0.05,,,0.08,weatherlink.com 1.10,2013-09-22 22:11:00,
2013-09-22 15:26:00,49.5,48.0,29.64,SW,229,0.0,0.0,94,0.10,,,0.14,weatherlink.com 1.10,2013-09-22 22:26:00,
2013-09-22 15:41:00,49.5,48.0,29.64,SW,229,0.0,0.0,94,0.10,,,0.15,weatherlink.com 1.10,2013-09-22 22:41:00,
2013-09-22 15:56:00,50.2,49.0,29.64,SW,229,0.0,0.0,96,0.09,,,0.15,weatherlink.com 1.10,2013-09-22 22:56:00,
2013-09-22 16:11:00,50.8,50.0,29.62,NNE,20,0.0,0.0,95,0.07,,,0.15,weatherlink.com 1.10,2013-09-22 23:11:00,
2013-09-22 16:26:00,50.8,49.0,29.62,NNE,20,0.0,0.0,94,0.01,,,0.16,weatherlink.com 1.10,2013-09-22 23:26:00,
2013-09-22 16:41:00,50.7,49.0,29.62,NNE,20,0.0,0.0,94,0.01,,,0.16,weatherlink.com 1.10,2013-09-22 23:41:00,
2013-09-22 16:56:00,50.2,49.0,29.63,NNE,20,0.0,0.0,94,0.01,,,0.16,weatherlink.com 1.10,2013-09-22 23:56:00,
2013-09-22 17:11:00,49.7,48.0,29.64,NNE,20,0.0,0.0,93,0.01,,,0.16,weatherlink.com 1.10,2013-09-23 00:11:00,
2013-09-22 17:26:00,49.3,47.0,29.63,NNE,19,0.0,0.0,93,0.00,,,0.16,weatherlink.com 1.10,2013-09-23 00:26:00,
2013-09-22 17:41:00,48.6,47.0,29.63,NNE,19,0.0,0.0,93,0.00,,,0.16,weatherlink.com 1.10,2013-09-23 00:41:00,
2013-09-22 17:56:00,48.3,47.0,29.64,NNE,19,0.0,0.0,95,0.00,,,0.16,weatherlink.com 1.10,2013-09-23 00:56:00,
2013-09-22 18:11:00,48.2,47.0,29.64,NNE,19,0.0,0.0,95,0.00,,,0.16,weatherlink.com 1.10,2013-09-23 01:11:00,
2013-09-22 18:26:00,48.0,47.0,29.64,NNE,19,0.0,0.0,95,0.00,,,0.16,weatherlink.com 1.10,2013-09-23 01:26:00,
2013-09-22 18:41:00,47.8,47.0,29.63,NNE,19,0.0,0.0,95,0.00,,,0.16,weatherlink.com 1.10,2013-09-23 01:41:00,
2013-09-22 18:56:00,47.4,46.0,29.63,NNE,19,0.0,0.0,95,0.00,,,0.16,weatherlink.com 1.10,2013-09-23 01:56:00,
2013-09-22 19:11:00,46.8,46.0,29.64,NNE,19,0.0,0.0,95,0.00,,,0.16,weatherlink.com 1.10,2013-09-23 02:11:00,
2013-09-22 19:26:00,46.1,45.0,29.65,NNE,19,0.0,0.0,95,0.00,,,0.16,weatherlink.com 1.10,2013-09-23 02:26:00,
2013-09-22 19:41:00,45.8,45.0,29.66,NNE,19,0.0,0.0,95,0.00,,,0.16,weatherlink.com 1.10,2013-09-23 02:41:00,
2013-09-22 19:56:00,45.5,45.0,29.66,NNE,19,0.0,0.0,96,0.00,,,0.16,weatherlink.com 1.10,2013-09-23 02:56:00,
2013-09-22 20:11:00,45.4,44.0,29.66,NNE,19,0.0,0.0,96,0.00,,,0.16,weatherlink.com 1.10,2013-09-23 03:11:00,
2013-09-22 20:26:00,45.1,44.0,29.67,NNE,19,0.0,0.0,96,0.00,,,0.16,weatherlink.com 1.10,2013-09-23 03:26:00,
2013-09-22 20:41:00,44.6,43.0,29.68,NNE,20,0.0,0.0,95,0.00,,,0.16,weatherlink.com 1.10,2013-09-23 03:41:00,
2013-09-22 20:56:00,44.2,43.0,29.68,NNE,19,0.0,0.0,96,0.00,,,0.16,weatherlink.com 1.10,2013-09-23 03:56:00,
2013-09-22 21:11:00,44.0,43.0,29.68,NNE,19,0.0,0.0,96,0.00,,,0.16,weatherlink.com 1.10,2013-09-23 04:11:00,
2013-09-22 21:26:00,43.6,43.0,29.69,NNE,19,0.0,0.0,96,0.00,,,0.16,weatherlink.com 1.10,2013-09-23 04:26:00,
2013-09-22 21:42:00,43.2,42.0,29.69,NNE,19,0.0,0.0,96,0.00,,,0.16,weatherlink.com 1.10,2013-09-23 04:42:00,
2013-09-22 21:57:00,42.9,42.0,29.70,NNE,19,0.0,0.0,96,0.00,,,0.16,weatherlink.com 1.10,2013-09-23 04:57:00,
2013-09-22 22:12:00,42.7,42.0,29.70,NNE,19,0.0,0.0,96,0.00,,,0.16,weatherlink.com 1.10,2013-09-23 05:12:00,
2013-09-22 22:27:00,42.6,42.0,29.70,NNE,19,0.0,0.0,96,0.00,,,0.16,weatherlink.com 1.10,2013-09-23 05:27:00,
2013-09-22 22:42:00,42.2,41.0,29.71,NNE,19,0.0,0.0,96,0.00,,,0.16,weatherlink.com 1.10,2013-09-23 05:42:00,
2013-09-22 22:57:00,42.1,41.0,29.71,NNE,19,0.0,0.0,96,0.00,,,0.16,weatherlink.com 1.10,2013-09-23 05:57:00,
2013-09-22 23:12:00,42.0,41.0,29.72,NNE,19,0.0,0.0,97,0.00,,,0.16,weatherlink.com 1.10,2013-09-23 06:12:00,
2013-09-22 23:27:00,42.2,41.0,29.73,NNE,19,0.0,0.0,97,0.01,,,0.17,weatherlink.com 1.10,2013-09-23 06:27:00,
2013-09-22 23:42:00,42.2,41.0,29.73,NNE,19,0.0,0.0,97,0.01,,,0.17,weatherlink.com 1.10,2013-09-23 06:42:00,
2013-09-22 23:57:00,42.5,42.0,29.73,NNE,19,0.0,0.0,97,0.03,,,0.19,weatherlink.com 1.10,2013-09-23 06:57:00,